sensor_id;sensor_type;location;lat;lon;timestamp;P1;durP1;ratioP1;P2;durP2;ratioP2
21480;SDS011;10902;48.158;8.634;2023-02-28T00:02:20;8.43;;;5.55;;
21480;SDS011;10902;48.158;8.634;2023-02-28T00:04:46;9.20;;;5.65;;
21480;SDS011;10902;48.158;8.634;2023-02-28T00:07:17;9.00;;;5.00;;
21480;SDS011;10902;48.158;8.634;2023-02-28T00:09:43;7.50;;;4.95;;
21480;SDS011;10902;48.158;8.634;2023-02-28T00:12:09;8.57;;;5.50;;
21480;SDS011;10902;48.158;8.634;2023-02-28T00:14:35;8.40;;;5.05;;
21480;SDS011;10902;48.158;8.634;2023-02-28T00:17:01;8.05;;;5.57;;
21480;SDS011;10902;48.158;8.634;2023-02-28T00:19:27;8.93;;;5.43;;
21480;SDS011;10902;48.158;8.634;2023-02-28T00:21:52;8.18;;;5.50;;
21480;SDS011;10902;48.158;8.634;2023-02-28T00:24:18;7.78;;;5.22;;
21480;SDS011;10902;48.158;8.634;2023-02-28T00:26:43;7.35;;;4.95;;
21480;SDS011;10902;48.158;8.634;2023-02-28T00:29:09;7.32;;;5.05;;
21480;SDS011;10902;48.158;8.634;2023-02-28T00:31:35;8.50;;;5.47;;
21480;SDS011;10902;48.158;8.634;2023-02-28T00:34:00;8.30;;;5.65;;
21480;SDS011;10902;48.158;8.634;2023-02-28T00:36:26;8.50;;;5.40;;
21480;SDS011;10902;48.158;8.634;2023-02-28T00:38:51;7.50;;;5.13;;
21480;SDS011;10902;48.158;8.634;2023-02-28T00:41:17;7.55;;;5.57;;
21480;SDS011;10902;48.158;8.634;2023-02-28T00:43:43;8.10;;;5.40;;
21480;SDS011;10902;48.158;8.634;2023-02-28T00:46:09;7.30;;;5.28;;
21480;SDS011;10902;48.158;8.634;2023-02-28T00:48:34;9.15;;;5.40;;
21480;SDS011;10902;48.158;8.634;2023-02-28T00:51:00;8.63;;;4.95;;
21480;SDS011;10902;48.158;8.634;2023-02-28T00:53:27;9.05;;;4.88;;
21480;SDS011;10902;48.158;8.634;2023-02-28T00:55:53;8.07;;;5.57;;
21480;SDS011;10902;48.158;8.634;2023-02-28T00:58:18;9.48;;;5.72;;
21480;SDS011;10902;48.158;8.634;2023-02-28T01:00:44;10.63;;;5.60;;
21480;SDS011;10902;48.158;8.634;2023-02-28T01:03:13;8.50;;;5.00;;
21480;SDS011;10902;48.158;8.634;2023-02-28T01:05:40;9.15;;;5.57;;
21480;SDS011;10902;48.158;8.634;2023-02-28T01:08:06;9.55;;;5.65;;
21480;SDS011;10902;48.158;8.634;2023-02-28T01:10:32;8.65;;;5.68;;
21480;SDS011;10902;48.158;8.634;2023-02-28T01:12:57;9.40;;;5.75;;
21480;SDS011;10902;48.158;8.634;2023-02-28T01:15:23;9.63;;;5.65;;
21480;SDS011;10902;48.158;8.634;2023-02-28T01:17:49;8.02;;;5.45;;
21480;SDS011;10902;48.158;8.634;2023-02-28T01:20:14;8.98;;;5.43;;
21480;SDS011;10902;48.158;8.634;2023-02-28T01:22:40;7.70;;;5.55;;
21480;SDS011;10902;48.158;8.634;2023-02-28T01:25:06;8.82;;;5.43;;
21480;SDS011;10902;48.158;8.634;2023-02-28T01:27:32;8.00;;;5.45;;
21480;SDS011;10902;48.158;8.634;2023-02-28T01:29:58;7.55;;;5.03;;
21480;SDS011;10902;48.158;8.634;2023-02-28T01:32:24;9.93;;;5.90;;
21480;SDS011;10902;48.158;8.634;2023-02-28T01:34:49;8.57;;;5.32;;
21480;SDS011;10902;48.158;8.634;2023-02-28T01:37:15;8.50;;;5.47;;
21480;SDS011;10902;48.158;8.634;2023-02-28T01:39:40;9.15;;;5.85;;
21480;SDS011;10902;48.158;8.634;2023-02-28T01:42:08;7.95;;;5.40;;
21480;SDS011;10902;48.158;8.634;2023-02-28T01:47:40;9.88;;;5.50;;
21480;SDS011;10902;48.158;8.634;2023-02-28T01:50:09;10.00;;;6.10;;
21480;SDS011;10902;48.158;8.634;2023-02-28T01:52:39;9.52;;;5.43;;
21480;SDS011;10902;48.158;8.634;2023-02-28T01:55:07;8.73;;;5.82;;
21480;SDS011;10902;48.158;8.634;2023-02-28T01:57:36;8.05;;;5.10;;
21480;SDS011;10902;48.158;8.634;2023-02-28T02:00:14;10.55;;;6.35;;
21480;SDS011;10902;48.158;8.634;2023-02-28T02:02:43;11.27;;;6.93;;
21480;SDS011;10902;48.158;8.634;2023-02-28T02:05:18;8.63;;;5.05;;
21480;SDS011;10902;48.158;8.634;2023-02-28T02:07:46;9.00;;;5.85;;
21480;SDS011;10902;48.158;8.634;2023-02-28T02:10:15;7.95;;;5.38;;
21480;SDS011;10902;48.158;8.634;2023-02-28T02:15:14;8.40;;;5.55;;
21480;SDS011;10902;48.158;8.634;2023-02-28T02:17:45;11.20;;;5.70;;
21480;SDS011;10902;48.158;8.634;2023-02-28T02:34:03;9.75;;;5.97;;
21480;SDS011;10902;48.158;8.634;2023-02-28T02:36:51;10.05;;;5.88;;
21480;SDS011;10902;48.158;8.634;2023-02-28T02:42:00;9.98;;;6.38;;
21480;SDS011;10902;48.158;8.634;2023-02-28T02:44:30;9.88;;;6.00;;
21480;SDS011;10902;48.158;8.634;2023-02-28T02:47:03;8.43;;;5.63;;
21480;SDS011;10902;48.158;8.634;2023-02-28T02:49:35;8.85;;;5.93;;
21480;SDS011;10902;48.158;8.634;2023-02-28T02:52:03;10.15;;;5.70;;
21480;SDS011;10902;48.158;8.634;2023-02-28T02:54:36;8.57;;;5.93;;
21480;SDS011;10902;48.158;8.634;2023-02-28T02:57:10;10.05;;;5.95;;
21480;SDS011;10902;48.158;8.634;2023-02-28T02:59:57;8.52;;;5.55;;
21480;SDS011;10902;48.158;8.634;2023-02-28T03:02:25;9.32;;;5.80;;
21480;SDS011;10902;48.158;8.634;2023-02-28T03:05:00;8.05;;;6.00;;
21480;SDS011;10902;48.158;8.634;2023-02-28T03:07:28;10.57;;;6.72;;
21480;SDS011;10902;48.158;8.634;2023-02-28T03:09:55;9.27;;;6.53;;
21480;SDS011;10902;48.158;8.634;2023-02-28T03:12:44;8.68;;;6.07;;
21480;SDS011;10902;48.158;8.634;2023-02-28T03:15:31;9.52;;;6.38;;
21480;SDS011;10902;48.158;8.634;2023-02-28T03:18:10;9.75;;;6.30;;
21480;SDS011;10902;48.158;8.634;2023-02-28T03:24:25;9.30;;;5.88;;
21480;SDS011;10902;48.158;8.634;2023-02-28T03:27:11;10.57;;;6.70;;
21480;SDS011;10902;48.158;8.634;2023-02-28T03:30:03;10.52;;;6.85;;
21480;SDS011;10902;48.158;8.634;2023-02-28T03:35:09;9.38;;;6.40;;
21480;SDS011;10902;48.158;8.634;2023-02-28T03:37:47;9.93;;;6.43;;
21480;SDS011;10902;48.158;8.634;2023-02-28T03:40:17;9.23;;;6.70;;
21480;SDS011;10902;48.158;8.634;2023-02-28T03:42:51;11.27;;;7.13;;
21480;SDS011;10902;48.158;8.634;2023-02-28T03:45:28;9.77;;;6.50;;
21480;SDS011;10902;48.158;8.634;2023-02-28T03:47:58;9.68;;;6.30;;
21480;SDS011;10902;48.158;8.634;2023-02-28T03:50:36;9.70;;;6.75;;
21480;SDS011;10902;48.158;8.634;2023-02-28T03:53:06;9.90;;;7.10;;
21480;SDS011;10902;48.158;8.634;2023-02-28T03:55:35;12.25;;;7.55;;
21480;SDS011;10902;48.158;8.634;2023-02-28T03:58:09;11.32;;;7.45;;
21480;SDS011;10902;48.158;8.634;2023-02-28T04:00:45;13.73;;;8.02;;
21480;SDS011;10902;48.158;8.634;2023-02-28T04:03:14;10.80;;;7.57;;
21480;SDS011;10902;48.158;8.634;2023-02-28T04:06:00;10.18;;;7.20;;
21480;SDS011;10902;48.158;8.634;2023-02-28T04:08:25;12.15;;;7.60;;
21480;SDS011;10902;48.158;8.634;2023-02-28T04:10:53;10.43;;;7.25;;
21480;SDS011;10902;48.158;8.634;2023-02-28T04:13:23;10.05;;;6.93;;
21480;SDS011;10902;48.158;8.634;2023-02-28T04:15:48;13.15;;;7.75;;
21480;SDS011;10902;48.158;8.634;2023-02-28T04:18:14;10.77;;;7.03;;
21480;SDS011;10902;48.158;8.634;2023-02-28T04:20:39;11.13;;;7.40;;
21480;SDS011;10902;48.158;8.634;2023-02-28T04:23:05;11.73;;;7.40;;
21480;SDS011;10902;48.158;8.634;2023-02-28T04:25:30;12.23;;;7.55;;
21480;SDS011;10902;48.158;8.634;2023-02-28T04:27:56;10.20;;;7.10;;
21480;SDS011;10902;48.158;8.634;2023-02-28T04:30:21;9.57;;;6.50;;
21480;SDS011;10902;48.158;8.634;2023-02-28T04:32:47;10.45;;;6.75;;
21480;SDS011;10902;48.158;8.634;2023-02-28T04:35:13;10.35;;;6.80;;
21480;SDS011;10902;48.158;8.634;2023-02-28T04:37:38;10.80;;;7.38;;
21480;SDS011;10902;48.158;8.634;2023-02-28T04:40:04;13.68;;;8.30;;
21480;SDS011;10902;48.158;8.634;2023-02-28T04:42:30;9.45;;;6.43;;
21480;SDS011;10902;48.158;8.634;2023-02-28T04:45:00;12.70;;;7.65;;
21480;SDS011;10902;48.158;8.634;2023-02-28T04:47:29;12.70;;;7.60;;
21480;SDS011;10902;48.158;8.634;2023-02-28T04:49:54;12.38;;;7.60;;
21480;SDS011;10902;48.158;8.634;2023-02-28T04:52:20;11.48;;;6.90;;
21480;SDS011;10902;48.158;8.634;2023-02-28T04:54:46;12.18;;;6.78;;
21480;SDS011;10902;48.158;8.634;2023-02-28T04:57:11;11.35;;;6.80;;
21480;SDS011;10902;48.158;8.634;2023-02-28T04:59:37;13.35;;;8.07;;
21480;SDS011;10902;48.158;8.634;2023-02-28T05:02:03;11.52;;;7.40;;
21480;SDS011;10902;48.158;8.634;2023-02-28T05:04:32;10.50;;;6.72;;
21480;SDS011;10902;48.158;8.634;2023-02-28T05:06:59;9.13;;;5.97;;
21480;SDS011;10902;48.158;8.634;2023-02-28T05:09:25;12.77;;;7.03;;
21480;SDS011;10902;48.158;8.634;2023-02-28T05:11:51;10.85;;;7.20;;
21480;SDS011;10902;48.158;8.634;2023-02-28T05:14:16;9.90;;;6.95;;
21480;SDS011;10902;48.158;8.634;2023-02-28T05:16:42;9.80;;;6.80;;
21480;SDS011;10902;48.158;8.634;2023-02-28T05:19:07;11.23;;;7.22;;
21480;SDS011;10902;48.158;8.634;2023-02-28T05:21:37;9.88;;;7.55;;
21480;SDS011;10902;48.158;8.634;2023-02-28T05:24:13;10.85;;;7.05;;
21480;SDS011;10902;48.158;8.634;2023-02-28T05:26:40;12.70;;;8.20;;
21480;SDS011;10902;48.158;8.634;2023-02-28T05:29:06;11.23;;;7.38;;
21480;SDS011;10902;48.158;8.634;2023-02-28T05:31:32;13.85;;;7.70;;
21480;SDS011;10902;48.158;8.634;2023-02-28T05:33:58;12.98;;;8.25;;
21480;SDS011;10902;48.158;8.634;2023-02-28T05:36:24;11.68;;;7.22;;
21480;SDS011;10902;48.158;8.634;2023-02-28T05:38:50;14.00;;;9.07;;
21480;SDS011;10902;48.158;8.634;2023-02-28T05:41:16;12.52;;;8.13;;
21480;SDS011;10902;48.158;8.634;2023-02-28T05:43:44;13.40;;;8.85;;
21480;SDS011;10902;48.158;8.634;2023-02-28T05:46:10;14.38;;;8.00;;
21480;SDS011;10902;48.158;8.634;2023-02-28T05:48:37;12.13;;;8.23;;
21480;SDS011;10902;48.158;8.634;2023-02-28T05:51:04;11.40;;;7.63;;
21480;SDS011;10902;48.158;8.634;2023-02-28T05:53:30;12.20;;;8.35;;
21480;SDS011;10902;48.158;8.634;2023-02-28T05:55:56;11.38;;;7.78;;
21480;SDS011;10902;48.158;8.634;2023-02-28T05:58:22;11.45;;;8.48;;
21480;SDS011;10902;48.158;8.634;2023-02-28T06:00:48;12.38;;;7.82;;
21480;SDS011;10902;48.158;8.634;2023-02-28T06:03:14;12.40;;;8.00;;
21480;SDS011;10902;48.158;8.634;2023-02-28T06:05:39;12.43;;;8.48;;
21480;SDS011;10902;48.158;8.634;2023-02-28T06:08:05;11.43;;;8.25;;
21480;SDS011;10902;48.158;8.634;2023-02-28T06:10:32;11.55;;;7.93;;
21480;SDS011;10902;48.158;8.634;2023-02-28T06:13:02;11.07;;;7.82;;
21480;SDS011;10902;48.158;8.634;2023-02-28T06:15:28;12.68;;;9.07;;
21480;SDS011;10902;48.158;8.634;2023-02-28T06:17:54;12.32;;;8.35;;
21480;SDS011;10902;48.158;8.634;2023-02-28T06:20:21;11.93;;;8.48;;
21480;SDS011;10902;48.158;8.634;2023-02-28T06:22:47;11.98;;;8.70;;
21480;SDS011;10902;48.158;8.634;2023-02-28T06:25:15;12.02;;;8.80;;
21480;SDS011;10902;48.158;8.634;2023-02-28T06:27:40;14.07;;;9.15;;
21480;SDS011;10902;48.158;8.634;2023-02-28T06:30:06;13.32;;;8.88;;
21480;SDS011;10902;48.158;8.634;2023-02-28T06:32:32;11.85;;;8.85;;
21480;SDS011;10902;48.158;8.634;2023-02-28T06:34:58;11.73;;;8.00;;
21480;SDS011;10902;48.158;8.634;2023-02-28T06:37:23;12.00;;;8.65;;
21480;SDS011;10902;48.158;8.634;2023-02-28T06:39:51;12.60;;;8.57;;
21480;SDS011;10902;48.158;8.634;2023-02-28T06:42:17;14.85;;;9.07;;
21480;SDS011;10902;48.158;8.634;2023-02-28T06:44:42;13.35;;;8.63;;
21480;SDS011;10902;48.158;8.634;2023-02-28T06:47:08;13.10;;;9.30;;
21480;SDS011;10902;48.158;8.634;2023-02-28T06:49:34;12.82;;;8.57;;
21480;SDS011;10902;48.158;8.634;2023-02-28T06:52:01;14.90;;;9.85;;
21480;SDS011;10902;48.158;8.634;2023-02-28T06:54:27;14.43;;;8.88;;
21480;SDS011;10902;48.158;8.634;2023-02-28T06:56:53;11.98;;;8.45;;
21480;SDS011;10902;48.158;8.634;2023-02-28T06:59:21;12.65;;;8.80;;
21480;SDS011;10902;48.158;8.634;2023-02-28T07:01:47;19.67;;;11.85;;
21480;SDS011;10902;48.158;8.634;2023-02-28T07:04:12;13.00;;;9.05;;
21480;SDS011;10902;48.158;8.634;2023-02-28T07:06:38;16.50;;;9.82;;
21480;SDS011;10902;48.158;8.634;2023-02-28T07:09:04;15.60;;;9.75;;
21480;SDS011;10902;48.158;8.634;2023-02-28T07:11:29;15.35;;;9.95;;
21480;SDS011;10902;48.158;8.634;2023-02-28T07:13:55;16.40;;;10.02;;
21480;SDS011;10902;48.158;8.634;2023-02-28T07:16:22;17.30;;;10.63;;
21480;SDS011;10902;48.158;8.634;2023-02-28T07:18:49;13.75;;;9.30;;
21480;SDS011;10902;48.158;8.634;2023-02-28T07:21:16;14.70;;;9.57;;
21480;SDS011;10902;48.158;8.634;2023-02-28T07:23:42;14.35;;;10.05;;
21480;SDS011;10902;48.158;8.634;2023-02-28T07:26:12;20.25;;;10.80;;
21480;SDS011;10902;48.158;8.634;2023-02-28T07:28:40;19.17;;;11.15;;
21480;SDS011;10902;48.158;8.634;2023-02-28T07:31:08;15.05;;;9.18;;
21480;SDS011;10902;48.158;8.634;2023-02-28T07:33:34;15.15;;;10.00;;
21480;SDS011;10902;48.158;8.634;2023-02-28T07:36:01;20.83;;;11.23;;
21480;SDS011;10902;48.158;8.634;2023-02-28T07:38:33;15.50;;;9.32;;
21480;SDS011;10902;48.158;8.634;2023-02-28T07:41:00;15.02;;;9.27;;
21480;SDS011;10902;48.158;8.634;2023-02-28T07:43:29;19.35;;;10.25;;
21480;SDS011;10902;48.158;8.634;2023-02-28T07:45:55;15.77;;;9.57;;
21480;SDS011;10902;48.158;8.634;2023-02-28T07:48:25;15.82;;;9.43;;
21480;SDS011;10902;48.158;8.634;2023-02-28T07:50:54;18.42;;;11.40;;
21480;SDS011;10902;48.158;8.634;2023-02-28T07:53:20;15.98;;;9.90;;
21480;SDS011;10902;48.158;8.634;2023-02-28T07:55:47;21.40;;;12.80;;
21480;SDS011;10902;48.158;8.634;2023-02-28T07:58:12;18.17;;;11.10;;
21480;SDS011;10902;48.158;8.634;2023-02-28T08:00:38;15.95;;;10.43;;
21480;SDS011;10902;48.158;8.634;2023-02-28T08:03:03;16.73;;;10.45;;
21480;SDS011;10902;48.158;8.634;2023-02-28T08:05:29;14.90;;;10.00;;
21480;SDS011;10902;48.158;8.634;2023-02-28T08:07:55;14.55;;;9.23;;
21480;SDS011;10902;48.158;8.634;2023-02-28T08:10:22;14.20;;;9.60;;
21480;SDS011;10902;48.158;8.634;2023-02-28T08:12:48;17.27;;;11.10;;
21480;SDS011;10902;48.158;8.634;2023-02-28T08:15:14;13.07;;;8.75;;
21480;SDS011;10902;48.158;8.634;2023-02-28T08:17:39;12.07;;;8.73;;
21480;SDS011;10902;48.158;8.634;2023-02-28T08:20:05;13.82;;;9.63;;
21480;SDS011;10902;48.158;8.634;2023-02-28T08:22:31;14.98;;;9.80;;
21480;SDS011;10902;48.158;8.634;2023-02-28T08:24:57;13.43;;;9.13;;
21480;SDS011;10902;48.158;8.634;2023-02-28T08:27:22;15.05;;;10.05;;
21480;SDS011;10902;48.158;8.634;2023-02-28T08:29:48;16.42;;;11.00;;
21480;SDS011;10902;48.158;8.634;2023-02-28T08:32:14;14.75;;;10.18;;
21480;SDS011;10902;48.158;8.634;2023-02-28T08:34:39;15.35;;;9.10;;
21480;SDS011;10902;48.158;8.634;2023-02-28T08:37:05;15.20;;;10.52;;
21480;SDS011;10902;48.158;8.634;2023-02-28T08:39:33;15.88;;;9.95;;
21480;SDS011;10902;48.158;8.634;2023-02-28T08:42:00;21.88;;;14.18;;
21480;SDS011;10902;48.158;8.634;2023-02-28T08:44:25;15.98;;;11.00;;
21480;SDS011;10902;48.158;8.634;2023-02-28T08:46:52;12.65;;;9.40;;
21480;SDS011;10902;48.158;8.634;2023-02-28T08:49:17;15.52;;;9.77;;
21480;SDS011;10902;48.158;8.634;2023-02-28T08:51:43;14.82;;;9.60;;
21480;SDS011;10902;48.158;8.634;2023-02-28T08:54:09;16.90;;;10.75;;
21480;SDS011;10902;48.158;8.634;2023-02-28T08:56:37;12.77;;;9.07;;
21480;SDS011;10902;48.158;8.634;2023-02-28T08:59:03;16.63;;;10.52;;
21480;SDS011;10902;48.158;8.634;2023-02-28T09:01:29;15.50;;;10.30;;
21480;SDS011;10902;48.158;8.634;2023-02-28T09:03:56;13.77;;;8.98;;
21480;SDS011;10902;48.158;8.634;2023-02-28T09:06:24;15.98;;;10.82;;
21480;SDS011;10902;48.158;8.634;2023-02-28T09:08:51;13.13;;;9.48;;
21480;SDS011;10902;48.158;8.634;2023-02-28T09:11:17;12.75;;;8.90;;
21480;SDS011;10902;48.158;8.634;2023-02-28T09:13:44;14.63;;;9.98;;
21480;SDS011;10902;48.158;8.634;2023-02-28T09:16:11;14.02;;;9.40;;
21480;SDS011;10902;48.158;8.634;2023-02-28T09:18:39;14.52;;;10.07;;
21480;SDS011;10902;48.158;8.634;2023-02-28T09:21:06;16.27;;;10.52;;
21480;SDS011;10902;48.158;8.634;2023-02-28T09:23:33;17.92;;;11.65;;
21480;SDS011;10902;48.158;8.634;2023-02-28T09:25:59;16.95;;;11.25;;
21480;SDS011;10902;48.158;8.634;2023-02-28T09:28:25;15.85;;;10.98;;
21480;SDS011;10902;48.158;8.634;2023-02-28T09:30:51;17.00;;;12.35;;
21480;SDS011;10902;48.158;8.634;2023-02-28T09:33:19;18.00;;;12.77;;
21480;SDS011;10902;48.158;8.634;2023-02-28T09:35:46;16.15;;;11.60;;
21480;SDS011;10902;48.158;8.634;2023-02-28T09:38:12;18.08;;;12.25;;
21480;SDS011;10902;48.158;8.634;2023-02-28T09:40:51;20.17;;;12.48;;
21480;SDS011;10902;48.158;8.634;2023-02-28T09:43:20;17.00;;;11.80;;
21480;SDS011;10902;48.158;8.634;2023-02-28T09:45:50;16.67;;;11.35;;
21480;SDS011;10902;48.158;8.634;2023-02-28T09:48:27;18.60;;;12.23;;
21480;SDS011;10902;48.158;8.634;2023-02-28T09:53:55;17.58;;;12.38;;
21480;SDS011;10902;48.158;8.634;2023-02-28T09:56:21;17.88;;;12.68;;
21480;SDS011;10902;48.158;8.634;2023-02-28T09:58:57;17.13;;;12.25;;
21480;SDS011;10902;48.158;8.634;2023-02-28T10:04:45;16.90;;;12.07;;
21480;SDS011;10902;48.158;8.634;2023-02-28T10:07:35;18.70;;;12.23;;
21480;SDS011;10902;48.158;8.634;2023-02-28T10:12:46;18.45;;;13.10;;
21480;SDS011;10902;48.158;8.634;2023-02-28T10:15:13;15.80;;;11.55;;
21480;SDS011;10902;48.158;8.634;2023-02-28T10:17:40;18.13;;;12.02;;
21480;SDS011;10902;48.158;8.634;2023-02-28T10:20:11;18.05;;;12.45;;
21480;SDS011;10902;48.158;8.634;2023-02-28T10:22:58;16.98;;;11.65;;
21480;SDS011;10902;48.158;8.634;2023-02-28T10:25:32;17.15;;;12.57;;
21480;SDS011;10902;48.158;8.634;2023-02-28T10:28:12;17.35;;;12.13;;
21480;SDS011;10902;48.158;8.634;2023-02-28T10:30:49;15.40;;;11.32;;
21480;SDS011;10902;48.158;8.634;2023-02-28T10:35:57;17.50;;;12.15;;
21480;SDS011;10902;48.158;8.634;2023-02-28T10:38:24;17.95;;;12.15;;
21480;SDS011;10902;48.158;8.634;2023-02-28T10:40:58;17.95;;;12.23;;
21480;SDS011;10902;48.158;8.634;2023-02-28T10:43:33;19.38;;;13.73;;
21480;SDS011;10902;48.158;8.634;2023-02-28T10:51:10;19.98;;;12.80;;
21480;SDS011;10902;48.158;8.634;2023-02-28T10:53:50;15.68;;;12.00;;
21480;SDS011;10902;48.158;8.634;2023-02-28T10:56:18;15.85;;;11.73;;
21480;SDS011;10902;48.158;8.634;2023-02-28T10:58:58;15.90;;;10.45;;
21480;SDS011;10902;48.158;8.634;2023-02-28T11:04:03;16.20;;;12.45;;
21480;SDS011;10902;48.158;8.634;2023-02-28T11:07:14;15.93;;;11.80;;
21480;SDS011;10902;48.158;8.634;2023-02-28T11:09:46;16.83;;;11.50;;
21480;SDS011;10902;48.158;8.634;2023-02-28T11:12:36;16.70;;;11.20;;
21480;SDS011;10902;48.158;8.634;2023-02-28T11:15:05;16.63;;;12.23;;
21480;SDS011;10902;48.158;8.634;2023-02-28T11:17:53;15.65;;;11.27;;
21480;SDS011;10902;48.158;8.634;2023-02-28T11:20:25;18.05;;;12.45;;
21480;SDS011;10902;48.158;8.634;2023-02-28T11:22:57;17.50;;;12.43;;
21480;SDS011;10902;48.158;8.634;2023-02-28T11:25:26;16.63;;;11.68;;
21480;SDS011;10902;48.158;8.634;2023-02-28T11:28:02;17.05;;;12.68;;
21480;SDS011;10902;48.158;8.634;2023-02-28T11:32:59;16.63;;;11.82;;
21480;SDS011;10902;48.158;8.634;2023-02-28T11:35:36;14.95;;;11.57;;
21480;SDS011;10902;48.158;8.634;2023-02-28T11:38:05;16.98;;;12.25;;
21480;SDS011;10902;48.158;8.634;2023-02-28T11:43:27;15.27;;;10.80;;
21480;SDS011;10902;48.158;8.634;2023-02-28T11:46:19;17.10;;;11.68;;
21480;SDS011;10902;48.158;8.634;2023-02-28T11:56:55;17.58;;;11.80;;
21480;SDS011;10902;48.158;8.634;2023-02-28T12:04:52;17.40;;;12.20;;
21480;SDS011;10902;48.158;8.634;2023-02-28T12:10:15;19.60;;;12.07;;
21480;SDS011;10902;48.158;8.634;2023-02-28T12:20:42;14.88;;;11.45;;
21480;SDS011;10902;48.158;8.634;2023-02-28T12:29:10;16.83;;;12.43;;
21480;SDS011;10902;48.158;8.634;2023-02-28T12:31:44;18.33;;;12.48;;
21480;SDS011;10902;48.158;8.634;2023-02-28T12:34:18;16.15;;;11.65;;
21480;SDS011;10902;48.158;8.634;2023-02-28T12:36:48;14.93;;;11.05;;
21480;SDS011;10902;48.158;8.634;2023-02-28T12:39:18;17.88;;;12.05;;
21480;SDS011;10902;48.158;8.634;2023-02-28T12:41:47;16.45;;;11.70;;
21480;SDS011;10902;48.158;8.634;2023-02-28T12:44:20;15.30;;;11.55;;
21480;SDS011;10902;48.158;8.634;2023-02-28T12:47:04;16.35;;;11.40;;
21480;SDS011;10902;48.158;8.634;2023-02-28T12:49:46;16.55;;;12.65;;
21480;SDS011;10902;48.158;8.634;2023-02-28T12:52:41;19.60;;;12.70;;
21480;SDS011;10902;48.158;8.634;2023-02-28T12:55:27;17.33;;;12.45;;
21480;SDS011;10902;48.158;8.634;2023-02-28T13:00:29;17.83;;;13.07;;
21480;SDS011;10902;48.158;8.634;2023-02-28T13:03:08;16.70;;;12.18;;
21480;SDS011;10902;48.158;8.634;2023-02-28T13:11:38;17.95;;;11.48;;
21480;SDS011;10902;48.158;8.634;2023-02-28T13:14:05;17.05;;;12.85;;
21480;SDS011;10902;48.158;8.634;2023-02-28T13:16:56;18.70;;;12.75;;
21480;SDS011;10902;48.158;8.634;2023-02-28T13:19:29;18.25;;;12.80;;
21480;SDS011;10902;48.158;8.634;2023-02-28T13:21:57;16.48;;;12.02;;
21480;SDS011;10902;48.158;8.634;2023-02-28T13:25:12;13.48;;;10.77;;
21480;SDS011;10902;48.158;8.634;2023-02-28T13:27:21;13.27;;;10.35;;
21480;SDS011;10902;48.158;8.634;2023-02-28T13:29:49;16.83;;;12.57;;
21480;SDS011;10902;48.158;8.634;2023-02-28T13:32:28;14.30;;;11.02;;
21480;SDS011;10902;48.158;8.634;2023-02-28T13:50:15;14.27;;;9.80;;
21480;SDS011;10902;48.158;8.634;2023-02-28T13:55:38;12.65;;;9.85;;
21480;SDS011;10902;48.158;8.634;2023-02-28T14:11:35;12.27;;;9.65;;
21480;SDS011;10902;48.158;8.634;2023-02-28T14:14:03;16.35;;;11.77;;
21480;SDS011;10902;48.158;8.634;2023-02-28T14:16:39;15.23;;;11.75;;
21480;SDS011;10902;48.158;8.634;2023-02-28T14:19:15;11.95;;;10.50;;
21480;SDS011;10902;48.158;8.634;2023-02-28T14:24:49;13.15;;;10.45;;
21480;SDS011;10902;48.158;8.634;2023-02-28T14:38:20;12.32;;;9.90;;
21480;SDS011;10902;48.158;8.634;2023-02-28T14:40:49;12.98;;;9.30;;
21480;SDS011;10902;48.158;8.634;2023-02-28T14:43:22;12.95;;;9.88;;
21480;SDS011;10902;48.158;8.634;2023-02-28T14:45:50;12.88;;;10.07;;
21480;SDS011;10902;48.158;8.634;2023-02-28T14:48:19;11.70;;;9.65;;
21480;SDS011;10902;48.158;8.634;2023-02-28T14:50:51;11.70;;;10.00;;
21480;SDS011;10902;48.158;8.634;2023-02-28T14:53:27;15.43;;;10.48;;
21480;SDS011;10902;48.158;8.634;2023-02-28T14:55:55;12.98;;;10.38;;
21480;SDS011;10902;48.158;8.634;2023-02-28T14:58:22;12.18;;;10.02;;
21480;SDS011;10902;48.158;8.634;2023-02-28T15:00:50;14.15;;;11.50;;
21480;SDS011;10902;48.158;8.634;2023-02-28T15:05:56;12.32;;;10.18;;
21480;SDS011;10902;48.158;8.634;2023-02-28T15:08:23;13.63;;;9.63;;
21480;SDS011;10902;48.158;8.634;2023-02-28T15:13:18;13.25;;;10.48;;
21480;SDS011;10902;48.158;8.634;2023-02-28T15:15:47;11.15;;;9.77;;
21480;SDS011;10902;48.158;8.634;2023-02-28T15:21:18;12.88;;;10.27;;
21480;SDS011;10902;48.158;8.634;2023-02-28T15:23:54;10.95;;;9.63;;
21480;SDS011;10902;48.158;8.634;2023-02-28T15:26:24;13.23;;;10.57;;
21480;SDS011;10902;48.158;8.634;2023-02-28T15:29:01;13.02;;;10.13;;
21480;SDS011;10902;48.158;8.634;2023-02-28T15:31:35;13.68;;;11.10;;
21480;SDS011;10902;48.158;8.634;2023-02-28T15:34:15;13.48;;;10.50;;
21480;SDS011;10902;48.158;8.634;2023-02-28T15:37:00;13.13;;;9.88;;
21480;SDS011;10902;48.158;8.634;2023-02-28T15:39:27;13.02;;;10.68;;
21480;SDS011;10902;48.158;8.634;2023-02-28T15:42:12;12.93;;;10.93;;
21480;SDS011;10902;48.158;8.634;2023-02-28T15:44:45;12.90;;;10.30;;
21480;SDS011;10902;48.158;8.634;2023-02-28T15:47:29;13.32;;;10.82;;
21480;SDS011;10902;48.158;8.634;2023-02-28T15:49:57;12.85;;;10.43;;
21480;SDS011;10902;48.158;8.634;2023-02-28T15:54:58;14.35;;;11.55;;
21480;SDS011;10902;48.158;8.634;2023-02-28T15:57:31;11.90;;;10.43;;
21480;SDS011;10902;48.158;8.634;2023-02-28T15:59:58;12.75;;;10.35;;
21480;SDS011;10902;48.158;8.634;2023-02-28T16:02:35;14.02;;;10.35;;
21480;SDS011;10902;48.158;8.634;2023-02-28T16:07:34;12.75;;;10.45;;
21480;SDS011;10902;48.158;8.634;2023-02-28T16:10:01;13.13;;;10.90;;
21480;SDS011;10902;48.158;8.634;2023-02-28T16:12:28;13.93;;;11.70;;
21480;SDS011;10902;48.158;8.634;2023-02-28T16:14:56;12.35;;;10.13;;
21480;SDS011;10902;48.158;8.634;2023-02-28T16:17:27;13.93;;;11.65;;
21480;SDS011;10902;48.158;8.634;2023-02-28T16:19:58;14.93;;;11.82;;
21480;SDS011;10902;48.158;8.634;2023-02-28T16:22:24;14.55;;;11.15;;
21480;SDS011;10902;48.158;8.634;2023-02-28T16:24:50;14.65;;;11.80;;
21480;SDS011;10902;48.158;8.634;2023-02-28T16:27:20;13.50;;;10.85;;
21480;SDS011;10902;48.158;8.634;2023-02-28T16:29:50;13.48;;;10.45;;
21480;SDS011;10902;48.158;8.634;2023-02-28T16:32:16;13.70;;;10.95;;
21480;SDS011;10902;48.158;8.634;2023-02-28T16:34:42;17.25;;;12.80;;
21480;SDS011;10902;48.158;8.634;2023-02-28T16:37:15;16.05;;;11.88;;
21480;SDS011;10902;48.158;8.634;2023-02-28T16:39:43;15.20;;;12.07;;
21480;SDS011;10902;48.158;8.634;2023-02-28T16:42:30;14.75;;;11.85;;
21480;SDS011;10902;48.158;8.634;2023-02-28T16:44:56;16.30;;;13.18;;
21480;SDS011;10902;48.158;8.634;2023-02-28T16:47:22;16.90;;;12.70;;
21480;SDS011;10902;48.158;8.634;2023-02-28T16:49:48;16.83;;;12.70;;
21480;SDS011;10902;48.158;8.634;2023-02-28T16:52:14;17.55;;;12.25;;
21480;SDS011;10902;48.158;8.634;2023-02-28T16:54:40;17.15;;;13.02;;
21480;SDS011;10902;48.158;8.634;2023-02-28T16:57:06;17.88;;;12.75;;
21480;SDS011;10902;48.158;8.634;2023-02-28T16:59:43;17.20;;;12.80;;
21480;SDS011;10902;48.158;8.634;2023-02-28T17:02:13;17.38;;;13.15;;
21480;SDS011;10902;48.158;8.634;2023-02-28T17:04:41;18.13;;;13.23;;
21480;SDS011;10902;48.158;8.634;2023-02-28T17:07:10;18.27;;;14.02;;
21480;SDS011;10902;48.158;8.634;2023-02-28T17:09:37;20.52;;;14.27;;
21480;SDS011;10902;48.158;8.634;2023-02-28T17:12:03;17.30;;;12.85;;
21480;SDS011;10902;48.158;8.634;2023-02-28T17:14:28;20.48;;;14.32;;
21480;SDS011;10902;48.158;8.634;2023-02-28T17:16:54;18.90;;;14.05;;